Lynn, Alabama
Current Conditions -  °F | °C
As of 11:56 AM on Tuesday 21 Oct 2014 (Local Time) from K1M4 Reporting Station
Clear Clear  
Wind Chill: 71°   Ceiling: Unl
Heat Index: 71°   Visibility: 10mi
Dew Point: 53°   Wind: 8mph
Humidity: 53%   Direction: 350°N
Pressure: 30.09"   Gusts: NA
Location:  34.05°N, 87.55°W
Report Text: K1M4 211656Z AUTO 35007KT 10SM CLR 22/12 A3009 RMK AO2 T02160116 SLP202
Loading
Personal Weather Stations






























Interactive Weather Map
Tropical Storm Tracking
New forecast layout! Learn more

10-Day Weather Forecast

Advertisements
Track Severe Weather on mobile